createdAt,value
2019-02-10T00:00:44.498Z,7.86
2019-02-10T00:01:27.911Z,7.81
2019-02-10T00:03:47.744Z,7.81
2019-02-10T00:04:47.141Z,7.81
2019-02-10T00:05:47.430Z,7.82
2019-02-10T00:06:47.120Z,7.84
2019-02-10T00:07:47.084Z,7.86
2019-02-10T00:10:42.535Z,7.82
2019-02-10T00:11:30.891Z,7.79
2019-02-10T00:12:30.900Z,7.81
2019-02-10T00:13:30.934Z,7.81
2019-02-10T00:14:30.789Z,7.79
2019-02-10T00:18:18.897Z,7.77
2019-02-10T00:19:18.244Z,7.69
2019-02-10T00:20:18.268Z,7.70
2019-02-10T00:21:18.192Z,7.76
2019-02-10T00:22:18.132Z,7.71
2019-02-10T00:23:18.159Z,7.63
2019-02-10T00:24:18.080Z,7.71
2019-02-10T00:27:11.620Z,7.69
2019-02-10T00:28:11.109Z,7.62
2019-02-10T00:29:11.263Z,7.70
2019-02-10T00:30:11.059Z,7.74
2019-02-10T00:31:10.959Z,7.60
2019-02-10T00:32:11.048Z,7.70
2019-02-10T00:33:10.951Z,7.69
2019-02-10T00:35:54.896Z,7.81
2019-02-10T00:37:04.994Z,7.74
2019-02-10T00:37:54.524Z,7.79
2019-02-10T00:38:55.413Z,7.81
2019-02-10T00:39:54.263Z,7.76
2019-02-10T00:40:54.293Z,7.71
2019-02-10T00:41:54.272Z,7.74
2019-02-10T00:42:54.287Z,7.74
2019-02-10T00:43:54.210Z,7.79
2019-02-10T00:44:54.499Z,7.82
2019-02-10T00:45:54.157Z,7.84
2019-02-10T00:46:54.163Z,7.85
2019-02-10T00:47:54.171Z,7.79
2019-02-10T00:48:54.169Z,7.74
2019-02-10T00:49:54.142Z,7.82
2019-02-10T00:50:54.108Z,7.84
2019-02-10T00:51:54.129Z,7.79
2019-02-10T00:52:54.088Z,7.76
2019-02-10T00:53:54.078Z,7.73
2019-02-10T00:54:54.155Z,7.77
2019-02-10T00:55:54.046Z,7.73
2019-02-10T00:56:54.724Z,7.71
2019-02-10T00:57:54.055Z,7.71
2019-02-10T00:58:54.012Z,7.79
2019-02-10T00:59:54.047Z,7.73
2019-02-10T01:00:54.032Z,7.73
2019-02-10T01:02:04.074Z,7.71
2019-02-10T01:02:54.357Z,7.69
2019-02-10T01:04:04.257Z,7.79
2019-02-10T01:04:54.301Z,7.77
2019-02-10T01:05:54.114Z,7.82
2019-02-10T01:06:54.150Z,7.82
2019-02-10T01:07:54.025Z,7.85
2019-02-10T01:09:02.228Z,7.85
2019-02-10T01:10:04.915Z,7.84
2019-02-10T01:10:53.997Z,7.92
2019-02-10T01:11:53.968Z,7.88
2019-02-10T01:12:53.920Z,7.88
2019-02-10T01:13:54.104Z,8.00
2019-02-10T01:16:42.593Z,8.02
2019-02-10T01:19:01.050Z,7.91
2019-02-10T01:20:00.760Z,7.99
2019-02-10T01:22:21.985Z,7.94
2019-02-10T01:23:21.360Z,7.88
2019-02-10T01:24:21.327Z,7.89
2019-02-10T01:25:21.392Z,7.94
2019-02-10T01:26:21.322Z,7.94
2019-02-10T01:27:21.414Z,7.92
2019-02-10T01:29:50.944Z,7.95
2019-02-10T01:30:50.450Z,8.03
2019-02-10T01:31:50.293Z,7.91
2019-02-10T01:35:52.557Z,8.06
2019-02-10T01:36:53.843Z,7.96
2019-02-10T01:40:07.033Z,8.03
2019-02-10T01:41:06.843Z,8.04
2019-02-10T01:42:07.017Z,8.07
2019-02-10T01:44:37.233Z,8.07
2019-02-10T01:45:36.020Z,8.07
2019-02-10T01:48:09.100Z,8.10
2019-02-10T01:50:42.308Z,8.18
2019-02-10T01:51:41.632Z,8.17
2019-02-10T01:52:41.670Z,8.07
2019-02-10T01:53:42.593Z,8.10
2019-02-10T01:54:41.530Z,8.13
2019-02-10T01:55:41.603Z,8.04
2019-02-10T01:56:42.394Z,8.10
2019-02-10T01:57:41.517Z,8.07
2019-02-10T01:58:44.515Z,8.20
2019-02-10T01:59:41.550Z,8.17
2019-02-10T02:00:41.460Z,8.20
2019-02-10T02:01:41.735Z,8.21
2019-02-10T02:02:41.433Z,8.22
2019-02-10T02:03:41.442Z,8.29
2019-02-10T02:04:41.404Z,8.29
2019-02-10T02:05:41.410Z,8.24
2019-02-10T02:06:41.522Z,8.25
2019-02-10T02:09:15.877Z,8.28
2019-02-10T02:10:14.739Z,8.34
2019-02-10T02:11:14.671Z,8.29
2019-02-10T02:12:14.532Z,8.36
2019-02-10T02:13:14.426Z,8.40
2019-02-10T02:14:14.491Z,8.40
2019-02-10T02:15:14.446Z,8.34
2019-02-10T02:16:14.441Z,8.36
2019-02-10T02:17:14.608Z,8.37
2019-02-10T02:18:14.397Z,8.40
2019-02-10T02:19:14.462Z,8.39
2019-02-10T02:20:14.358Z,8.39
2019-02-10T02:21:14.371Z,8.37
2019-02-10T02:22:14.339Z,8.37
2019-02-10T02:23:14.350Z,8.43
2019-02-10T02:24:14.324Z,8.31
2019-02-10T02:26:59.075Z,8.31
2019-02-10T02:27:58.453Z,8.39
2019-02-10T02:28:58.539Z,8.34
2019-02-10T02:29:58.339Z,8.37
2019-02-10T02:30:58.277Z,8.32
2019-02-10T02:31:58.235Z,8.32
2019-02-10T02:32:58.267Z,8.29
2019-02-10T02:33:58.273Z,8.24
2019-02-10T02:34:58.203Z,8.29
2019-02-10T02:35:58.321Z,8.22
2019-02-10T02:37:07.330Z,8.20
2019-02-10T02:37:59.467Z,8.21
2019-02-10T02:38:58.163Z,8.18
2019-02-10T02:39:58.145Z,8.12
2019-02-10T02:40:58.930Z,8.10
2019-02-10T02:42:23.543Z,8.09
2019-02-10T02:42:58.445Z,8.13
2019-02-10T02:44:00.215Z,8.14
2019-02-10T02:44:58.406Z,8.12
2019-02-10T02:45:58.108Z,8.06
2019-02-10T02:49:51.691Z,7.92
2019-02-10T02:50:46.146Z,8.03
2019-02-10T02:51:46.054Z,8.00
2019-02-10T02:52:46.019Z,7.92
2019-02-10T02:53:45.969Z,8.00
2019-02-10T02:54:46.005Z,7.85
2019-02-10T02:55:45.981Z,7.91
2019-02-10T02:56:46.006Z,7.84
2019-02-10T02:57:45.983Z,7.88
2019-02-10T02:58:45.945Z,7.82
2019-02-10T02:59:45.916Z,7.73
2019-02-10T03:00:45.974Z,7.73
2019-02-10T03:01:45.974Z,7.73
2019-02-10T03:02:45.943Z,7.67
2019-02-10T03:03:45.920Z,7.66
2019-02-10T03:04:45.844Z,7.63
2019-02-10T03:05:45.885Z,7.54
2019-02-10T03:06:45.908Z,7.54
2019-02-10T03:07:45.819Z,7.58
2019-02-10T03:08:45.803Z,7.50
2019-02-10T03:09:45.883Z,7.47
2019-02-10T03:10:45.784Z,7.45
2019-02-10T03:11:45.787Z,7.47
2019-02-10T03:12:45.814Z,7.45
2019-02-10T03:13:45.749Z,7.50
2019-02-10T03:14:45.747Z,7.52
2019-02-10T03:15:45.776Z,7.50
2019-02-10T03:16:45.735Z,7.39
2019-02-10T03:17:45.733Z,7.42
2019-02-10T03:18:53.056Z,7.39
2019-02-10T03:19:46.679Z,7.37
2019-02-10T03:20:45.814Z,7.27
2019-02-10T03:21:45.666Z,7.29
2019-02-10T03:22:45.694Z,7.26
2019-02-10T03:23:45.678Z,7.32
2019-02-10T03:24:45.637Z,7.29
2019-02-10T03:25:45.629Z,7.18
2019-02-10T03:26:45.646Z,7.18
2019-02-10T03:27:45.595Z,7.15
2019-02-10T03:28:45.640Z,7.16
2019-02-10T03:29:45.621Z,7.18
2019-02-10T03:30:45.619Z,7.16
2019-02-10T03:31:45.663Z,7.21
2019-02-10T03:32:45.567Z,7.18
2019-02-10T03:34:56.395Z,7.27
2019-02-10T03:35:56.146Z,7.27
2019-02-10T03:36:56.000Z,7.24
2019-02-10T03:37:55.912Z,7.32
2019-02-10T03:38:56.128Z,7.27
2019-02-10T03:39:55.942Z,7.18
2019-02-10T03:40:56.034Z,7.18
2019-02-10T03:42:07.962Z,7.21
2019-02-10T03:42:56.090Z,7.16
2019-02-10T03:43:55.907Z,7.21
2019-02-10T03:44:56.155Z,7.14
2019-02-10T03:45:55.851Z,7.15
2019-02-10T03:46:55.903Z,7.12
2019-02-10T03:47:55.746Z,7.16
2019-02-10T03:48:55.799Z,7.12
2019-02-10T03:49:55.771Z,7.11
2019-02-10T03:50:55.811Z,7.09
2019-02-10T03:51:55.706Z,7.05
2019-02-10T03:52:55.704Z,7.09
2019-02-10T03:53:55.710Z,7.07
2019-02-10T03:54:55.691Z,7.04
2019-02-10T03:55:55.696Z,7.05
2019-02-10T03:56:55.661Z,6.91
2019-02-10T03:57:55.677Z,6.93
2019-02-10T04:00:07.401Z,6.91
2019-02-10T04:01:07.009Z,6.96
2019-02-10T04:02:06.736Z,6.99
2019-02-10T04:03:06.765Z,6.89
2019-02-10T04:04:06.672Z,6.87
2019-02-10T04:05:06.796Z,6.87
2019-02-10T04:06:06.613Z,6.86
2019-02-10T04:07:06.567Z,6.93
2019-02-10T04:08:06.596Z,6.91
2019-02-10T04:10:37.052Z,6.90
2019-02-10T04:11:36.810Z,6.81
2019-02-10T04:12:37.371Z,6.83
2019-02-10T04:13:36.575Z,6.78
2019-02-10T04:14:36.549Z,6.83
2019-02-10T04:15:36.549Z,6.82
2019-02-10T04:16:36.429Z,6.75
2019-02-10T04:17:36.445Z,6.65
2019-02-10T04:18:36.393Z,6.72
2019-02-10T04:19:36.446Z,6.71
2019-02-10T04:20:36.381Z,6.60
2019-02-10T04:21:36.390Z,6.64
2019-02-10T04:22:36.338Z,6.64
2019-02-10T04:23:36.356Z,6.64
2019-02-10T04:24:36.367Z,6.73
2019-02-10T04:25:36.315Z,6.68
2019-02-10T04:26:36.303Z,6.68
2019-02-10T04:27:36.300Z,6.64
2019-02-10T04:28:36.347Z,6.61
2019-02-10T04:29:36.267Z,6.68
2019-02-10T04:30:36.271Z,6.65
2019-02-10T04:31:36.281Z,6.54
2019-02-10T04:32:36.258Z,6.63
2019-02-10T04:33:36.314Z,6.61
2019-02-10T04:34:36.285Z,6.60
2019-02-10T04:35:36.207Z,6.63
2019-02-10T04:36:36.200Z,6.63
2019-02-10T04:37:45.060Z,6.63
2019-02-10T04:38:37.243Z,6.57
2019-02-10T04:39:36.164Z,6.60
2019-02-10T04:40:36.163Z,6.60
2019-02-10T04:41:36.136Z,6.54
2019-02-10T04:42:36.144Z,6.55
2019-02-10T04:43:36.132Z,6.48
2019-02-10T04:44:36.210Z,6.54
2019-02-10T04:45:36.086Z,6.53
2019-02-10T04:46:36.077Z,6.50
2019-02-10T04:47:36.081Z,6.53
2019-02-10T04:48:39.515Z,6.51
2019-02-10T04:49:36.055Z,6.43
2019-02-10T04:50:37.111Z,6.40
2019-02-10T04:51:36.290Z,6.45
2019-02-10T04:52:43.035Z,6.42
2019-02-10T04:53:36.309Z,6.46
2019-02-10T04:54:36.136Z,6.40
2019-02-10T04:55:35.986Z,6.45
2019-02-10T04:56:35.997Z,6.40
2019-02-10T04:57:35.949Z,6.43
2019-02-10T04:58:35.955Z,6.39
2019-02-10T04:59:35.954Z,6.42
2019-02-10T05:00:35.961Z,6.39
2019-02-10T05:01:36.051Z,6.38
2019-02-10T05:02:35.939Z,6.45
2019-02-10T05:03:35.908Z,6.42
2019-02-10T05:04:35.903Z,6.40
2019-02-10T05:05:35.914Z,6.43
2019-02-10T05:06:35.944Z,6.30
2019-02-10T05:07:35.847Z,6.40
2019-02-10T05:08:35.847Z,6.40
2019-02-10T05:09:35.873Z,6.30
2019-02-10T05:10:35.834Z,6.32
2019-02-10T05:11:35.807Z,6.39
2019-02-10T05:12:35.797Z,6.33
2019-02-10T05:13:36.484Z,6.33
2019-02-10T05:14:35.809Z,6.32
2019-02-10T05:15:35.830Z,6.35
2019-02-10T05:16:35.799Z,6.36
2019-02-10T05:51:25.097Z,6.25
2019-02-10T05:52:24.117Z,6.27
2019-02-10T05:55:13.210Z,6.21
2019-02-10T05:56:12.973Z,6.21
2019-02-10T06:00:18.244Z,6.17
2019-02-10T06:01:20.636Z,6.25
2019-02-10T06:06:19.933Z,6.27
2019-02-10T06:07:19.162Z,6.17
2019-02-10T06:08:19.019Z,6.25
2019-02-10T06:09:18.979Z,6.28
2019-02-10T06:10:18.845Z,6.14
2019-02-10T06:11:18.736Z,6.25
2019-02-10T06:12:19.147Z,6.24
2019-02-10T06:13:18.641Z,6.27
2019-02-10T06:14:18.657Z,6.20
2019-02-10T06:15:18.618Z,6.28
2019-02-10T06:16:18.673Z,6.19
2019-02-10T06:18:42.845Z,6.32
2019-02-10T06:19:41.492Z,6.25
2019-02-10T06:20:42.186Z,6.35
2019-02-10T06:21:41.478Z,6.38
2019-02-10T06:22:41.387Z,6.36
2019-02-10T06:23:46.141Z,6.36
2019-02-10T06:24:41.319Z,6.36
2019-02-10T06:25:41.321Z,6.35
2019-02-10T06:26:41.327Z,6.45
2019-02-10T06:27:41.284Z,6.42
2019-02-10T06:28:41.327Z,6.40
2019-02-10T06:29:41.327Z,6.46
2019-02-10T06:30:41.358Z,6.53
2019-02-10T06:31:41.230Z,6.51
2019-02-10T06:32:41.242Z,6.61
2019-02-10T06:35:27.211Z,6.63
2019-02-10T06:45:36.956Z,6.87
2019-02-10T06:46:36.517Z,6.90
2019-02-10T06:47:36.425Z,6.89
2019-02-10T06:48:36.481Z,6.96
2019-02-10T06:51:16.741Z,7.05
2019-02-10T06:52:17.156Z,7.05
2019-02-10T06:54:46.203Z,7.14
2019-02-10T06:55:45.457Z,7.15
2019-02-10T07:04:19.473Z,7.41
2019-02-10T07:06:48.037Z,7.47
2019-02-10T07:07:46.493Z,7.45
2019-02-10T07:15:37.564Z,7.73
2019-02-10T07:16:37.527Z,7.69
2019-02-10T07:17:37.443Z,7.76
2019-02-10T07:18:37.570Z,7.79
2019-02-10T07:19:37.389Z,7.84
2019-02-10T07:20:37.336Z,7.74
2019-02-10T07:21:37.426Z,7.81
2019-02-10T07:22:37.346Z,7.82
2019-02-10T07:23:37.313Z,7.84
2019-02-10T07:24:37.357Z,7.84
2019-02-10T07:25:37.359Z,7.82
2019-02-10T07:26:37.349Z,7.77
2019-02-10T07:27:37.451Z,7.84
2019-02-10T07:28:37.250Z,7.91
2019-02-10T07:29:37.289Z,7.95
2019-02-10T07:30:37.255Z,7.96
2019-02-10T07:31:37.222Z,7.99
2019-02-10T07:32:37.219Z,7.99
2019-02-10T07:33:37.202Z,8.00
2019-02-10T07:34:37.222Z,7.92
2019-02-10T07:35:37.176Z,8.00
2019-02-10T07:36:37.295Z,8.04
2019-02-10T07:37:37.183Z,7.96
2019-02-10T07:38:38.684Z,7.99
2019-02-10T07:39:37.145Z,7.95
2019-02-10T07:40:37.208Z,8.07
2019-02-10T07:41:37.123Z,8.07
2019-02-10T07:42:37.126Z,8.02
2019-02-10T07:43:37.127Z,8.00
2019-02-10T07:44:37.151Z,8.07
2019-02-10T07:45:37.772Z,8.06
2019-02-10T07:47:43.279Z,8.10
2019-02-10T07:48:35.819Z,8.10
2019-02-10T07:49:35.726Z,8.20
2019-02-10T07:50:35.843Z,8.21
2019-02-10T07:51:35.353Z,8.20
2019-02-10T07:52:37.992Z,8.18
2019-02-10T07:53:35.393Z,8.24
2019-02-10T07:54:42.133Z,8.34
2019-02-10T07:55:36.741Z,8.25
2019-02-10T07:59:22.932Z,8.28
2019-02-10T08:00:22.914Z,8.27
2019-02-10T08:02:34.521Z,8.29
2019-02-10T08:03:35.142Z,8.36
2019-02-10T08:04:39.686Z,8.36
2019-02-10T08:05:33.971Z,8.40
2019-02-10T08:06:33.970Z,8.37
2019-02-10T08:07:34.764Z,8.37
2019-02-10T08:08:46.264Z,8.39
2019-02-10T08:09:35.000Z,8.40
2019-02-10T08:10:35.719Z,8.49
2019-02-10T08:11:33.916Z,8.49
2019-02-10T08:12:46.414Z,8.45
2019-02-10T08:13:33.993Z,8.46
2019-02-10T08:14:34.111Z,8.34
2019-02-10T08:15:34.790Z,8.37
2019-02-10T08:32:26.089Z,8.70
2019-02-10T08:33:26.456Z,8.70
2019-02-10T08:34:27.938Z,8.79
2019-02-10T08:35:25.548Z,8.68
2019-02-10T08:42:33.718Z,8.93
2019-02-10T08:46:22.930Z,9.00
2019-02-10T08:47:22.879Z,8.97
2019-02-10T08:48:22.427Z,9.10
2019-02-10T08:49:22.138Z,9.15
2019-02-10T08:50:22.094Z,9.19
2019-02-10T08:52:51.995Z,9.10
2019-02-10T08:53:50.954Z,9.20
2019-02-10T09:01:20.467Z,9.42
2019-02-10T09:02:21.370Z,9.40
2019-02-10T09:03:20.038Z,9.40
2019-02-10T09:04:19.024Z,9.38
2019-02-10T09:10:09.766Z,9.42
2019-02-10T09:20:07.403Z,9.55
2019-02-10T09:21:07.657Z,9.60
2019-02-10T09:22:07.118Z,9.55
2019-02-10T09:23:07.111Z,9.65
2019-02-10T09:24:07.677Z,9.62
2019-02-10T09:25:06.833Z,9.70
2019-02-10T09:27:22.870Z,9.74
2019-02-10T09:28:20.941Z,9.73
2019-02-10T09:29:20.897Z,9.71
2019-02-10T09:30:21.816Z,9.73
2019-02-10T09:31:23.219Z,9.73
2019-02-10T09:34:29.723Z,9.73
2019-02-10T09:35:22.895Z,9.81
2019-02-10T09:36:23.049Z,9.81
2019-02-10T09:38:55.944Z,9.75
2019-02-10T09:39:56.133Z,9.91
2019-02-10T09:40:57.469Z,9.99
2019-02-10T09:41:55.892Z,9.92
2019-02-10T09:52:05.872Z,10.10
2019-02-10T09:53:05.492Z,10.11
2019-02-10T10:04:45.651Z,10.36
2019-02-10T10:05:45.434Z,10.28
2019-02-10T10:08:05.626Z,10.31
2019-02-10T10:09:09.884Z,10.34
2019-02-10T10:10:06.185Z,10.32
2019-02-10T10:11:05.645Z,10.29
2019-02-10T10:12:05.011Z,10.28
2019-02-10T10:13:05.063Z,10.16
2019-02-10T10:17:01.649Z,10.06
2019-02-10T10:18:01.674Z,10.01
2019-02-10T10:19:12.532Z,9.96
2019-02-10T10:22:09.384Z,9.80
2019-02-10T10:23:14.701Z,9.83
2019-02-10T10:24:09.094Z,9.85
2019-02-10T10:25:12.834Z,9.83
2019-02-10T10:27:38.370Z,9.75
2019-02-10T11:32:15.662Z,9.15
2019-02-10T11:36:45.930Z,9.15
2019-02-10T11:37:45.502Z,9.23
2019-02-10T12:16:12.124Z,9.55
2019-02-10T12:17:11.883Z,9.50
2019-02-10T12:18:12.536Z,9.59
2019-02-10T12:19:11.634Z,9.53
2019-02-10T12:20:15.275Z,9.59
2019-02-10T12:21:11.914Z,9.56
2019-02-10T12:22:11.629Z,9.58
2019-02-10T12:24:26.322Z,9.55
2019-02-10T12:25:25.259Z,9.59
2019-02-10T12:26:25.227Z,9.68
2019-02-10T12:27:25.013Z,9.71
2019-02-10T12:28:24.976Z,9.68
2019-02-10T12:29:25.024Z,9.77
2019-02-10T12:30:25.020Z,9.60
2019-02-10T12:34:48.452Z,9.71
2019-02-10T12:35:49.104Z,9.67
2019-02-10T12:38:00.456Z,9.68
2019-02-10T12:39:02.409Z,9.68
2019-02-10T12:40:00.014Z,9.59
2019-02-10T12:41:10.760Z,9.71
2019-02-10T12:41:59.253Z,9.70
2019-02-10T12:42:59.329Z,9.73
2019-02-10T12:45:25.455Z,9.78
2019-02-10T12:46:24.428Z,9.73
2019-02-10T12:47:25.226Z,9.74
2019-02-10T12:48:24.098Z,9.75
2019-02-10T12:49:24.058Z,9.75
2019-02-10T12:50:25.017Z,9.85
2019-02-10T12:51:24.057Z,9.78
2019-02-10T12:52:24.392Z,9.73
2019-02-10T12:53:31.761Z,9.71
2019-02-10T12:54:24.014Z,9.65
2019-02-10T12:55:24.052Z,9.70
2019-02-10T12:56:25.117Z,9.65
2019-02-10T12:57:24.027Z,9.62
2019-02-10T12:58:24.066Z,9.68
2019-02-10T12:59:24.959Z,9.60
2019-02-10T13:00:25.084Z,9.71
2019-02-10T13:01:26.127Z,9.55
2019-02-10T13:02:24.915Z,9.63
2019-02-10T13:03:27.369Z,9.60
2019-02-10T13:05:50.523Z,9.53
2019-02-10T13:06:50.997Z,9.55
2019-02-10T13:07:50.068Z,9.53
2019-02-10T13:08:50.132Z,9.53
2019-02-10T13:12:08.441Z,9.44
2019-02-10T13:13:08.233Z,9.37
2019-02-10T13:14:07.400Z,9.34
2019-02-10T13:15:07.329Z,9.32
2019-02-10T13:17:34.875Z,9.19
2019-02-10T13:18:34.538Z,9.10
2019-02-10T13:19:34.599Z,8.96
2019-02-10T13:20:36.408Z,8.94
2019-02-10T13:21:35.766Z,8.93
2019-02-10T13:22:34.385Z,8.86
2019-02-10T13:23:34.318Z,8.83
2019-02-10T13:24:34.329Z,8.79
2019-02-10T13:25:34.293Z,8.82
2019-02-10T13:26:37.352Z,8.75
2019-02-10T13:27:34.336Z,8.68
2019-02-10T13:28:34.270Z,8.75
2019-02-10T13:29:34.243Z,8.78
2019-02-10T13:30:34.236Z,8.73
2019-02-10T13:31:34.906Z,8.76
2019-02-10T13:32:34.250Z,8.83
2019-02-10T13:33:34.244Z,8.71
2019-02-10T13:34:34.191Z,8.70
2019-02-10T13:35:34.264Z,8.68
2019-02-10T13:36:34.209Z,8.70
2019-02-10T13:37:34.528Z,8.67
2019-02-10T13:39:59.372Z,8.65
2019-02-10T13:40:59.369Z,8.65
2019-02-10T13:41:59.916Z,8.65
2019-02-10T13:42:58.820Z,8.67
2019-02-10T13:43:58.833Z,8.60
2019-02-10T13:44:58.763Z,8.64
2019-02-10T13:45:58.742Z,8.61
2019-02-10T13:46:58.709Z,8.50
2019-02-10T13:47:58.690Z,8.57
2019-02-10T13:48:58.696Z,8.52
2019-02-10T13:49:58.675Z,8.57
2019-02-10T13:50:58.767Z,8.52
2019-02-10T13:51:58.707Z,8.50
2019-02-10T13:52:58.642Z,8.61
2019-02-10T13:53:58.661Z,8.58
2019-02-10T13:54:58.638Z,8.58
2019-02-10T13:55:58.615Z,8.60
2019-02-10T13:56:58.632Z,8.61
2019-02-10T13:57:58.585Z,8.58
2019-02-10T13:58:58.592Z,8.60
2019-02-10T13:59:58.642Z,8.57
2019-02-10T14:00:58.549Z,8.64
2019-02-10T14:01:58.552Z,8.60
2019-02-10T14:02:58.593Z,8.65
2019-02-10T14:03:58.624Z,8.65
2019-02-10T14:04:58.581Z,8.65
2019-02-10T14:05:58.531Z,8.65
2019-02-10T14:06:58.744Z,8.63
2019-02-10T14:07:58.696Z,8.63
2019-02-10T14:13:23.090Z,8.60
2019-02-10T14:15:34.294Z,8.67
2019-02-10T14:44:43.308Z,8.65
2019-02-10T14:47:36.132Z,8.55
2019-02-10T14:53:43.852Z,8.54
2019-02-10T14:54:42.696Z,8.52
2019-02-10T14:55:42.731Z,8.47
2019-02-10T14:56:42.748Z,8.47
2019-02-10T14:57:42.632Z,8.52
2019-02-10T15:01:43.195Z,8.52
2019-02-10T15:02:42.988Z,8.49
2019-02-10T15:03:42.911Z,8.54
2019-02-10T15:04:43.354Z,8.50
2019-02-10T15:10:22.604Z,8.46
2019-02-10T15:11:22.003Z,8.49
2019-02-10T15:12:22.832Z,8.49
2019-02-10T15:13:21.711Z,8.46
2019-02-10T15:14:21.702Z,8.45
2019-02-10T15:15:28.824Z,8.45
2019-02-10T15:16:22.236Z,8.40
2019-02-10T15:17:21.628Z,8.37
2019-02-10T15:19:38.806Z,8.39
2019-02-10T15:20:38.541Z,8.37
2019-02-10T15:21:38.548Z,8.42
2019-02-10T15:22:38.352Z,8.40
2019-02-10T15:23:38.296Z,8.43
2019-02-10T15:24:39.005Z,8.42
2019-02-10T15:25:38.206Z,8.37
2019-02-10T15:26:38.486Z,8.37
2019-02-10T15:27:38.186Z,8.45
2019-02-10T15:28:38.197Z,8.43
2019-02-10T15:29:38.611Z,8.39
2019-02-10T15:30:39.165Z,8.42
2019-02-10T15:31:39.037Z,8.43
2019-02-10T15:32:38.125Z,8.47
2019-02-10T15:33:38.149Z,8.46
2019-02-10T15:34:38.158Z,8.46
2019-02-10T15:35:38.163Z,8.47
2019-02-10T15:36:38.340Z,8.43
2019-02-10T15:37:38.061Z,8.47
2019-02-10T15:39:57.504Z,8.40
2019-02-10T15:41:59.026Z,8.46
2019-02-10T15:42:58.497Z,8.46
2019-02-10T15:45:17.654Z,8.54
2019-02-10T15:46:17.235Z,8.49
2019-02-10T15:47:17.230Z,8.47
2019-02-10T15:49:37.240Z,8.54
2019-02-10T15:50:36.701Z,8.45
2019-02-10T15:51:46.488Z,8.40
2019-02-10T15:52:37.024Z,8.37
2019-02-10T15:53:36.607Z,8.40
2019-02-10T15:54:36.650Z,8.39
2019-02-10T15:55:36.683Z,8.37
2019-02-10T15:56:36.439Z,8.34
2019-02-10T15:57:36.433Z,8.25
2019-02-10T15:58:36.476Z,8.21
2019-02-10T15:59:36.396Z,8.21
2019-02-10T16:00:36.371Z,8.18
2019-02-10T16:01:36.366Z,8.07
2019-02-10T16:02:36.679Z,8.02
2019-02-10T16:03:36.556Z,7.95
2019-02-10T16:04:36.339Z,7.94
2019-02-10T16:05:36.964Z,7.99
2019-02-10T16:06:36.403Z,7.99
2019-02-10T16:07:36.305Z,7.99
2019-02-10T16:08:36.287Z,7.81
2019-02-10T16:09:37.321Z,7.82
2019-02-10T16:10:36.908Z,7.82
2019-02-10T16:11:36.255Z,7.79
2019-02-10T16:12:36.297Z,7.73
2019-02-10T16:13:36.269Z,7.69
2019-02-10T16:14:36.265Z,7.69
2019-02-10T16:15:37.168Z,7.62
2019-02-10T16:16:36.280Z,7.57
2019-02-10T16:17:36.227Z,7.69
2019-02-10T16:18:36.243Z,7.62
2019-02-10T16:19:36.222Z,7.44
2019-02-10T16:20:36.218Z,7.44
2019-02-10T16:21:36.711Z,7.52
2019-02-10T17:33:15.946Z,7.37
2019-02-10T17:34:17.687Z,7.39
2019-02-10T17:35:17.171Z,7.39
2019-02-10T17:36:18.853Z,7.32
2019-02-10T17:37:15.809Z,7.33
2019-02-10T17:44:05.716Z,7.00
2019-02-10T17:45:00.645Z,6.93
2019-02-10T17:53:52.324Z,6.63
2019-02-10T17:54:52.301Z,6.60
2019-02-10T17:55:52.226Z,6.64
2019-02-10T17:56:52.145Z,6.53
2019-02-10T17:57:52.128Z,6.50
2019-02-10T17:58:52.095Z,6.46
2019-02-10T17:59:53.083Z,6.51
2019-02-10T18:00:52.083Z,6.46
2019-02-10T18:01:52.059Z,6.45
2019-02-10T18:02:52.059Z,6.36
2019-02-10T18:03:54.692Z,6.32
2019-02-10T18:04:52.032Z,6.36
2019-02-10T18:05:52.041Z,6.38
2019-02-10T18:06:52.016Z,6.21
2019-02-10T18:07:52.025Z,6.17
2019-02-10T18:08:52.029Z,6.17
2019-02-10T18:09:51.995Z,6.03
2019-02-10T18:10:53.031Z,5.93
2019-02-10T18:11:52.094Z,5.92
2019-02-10T18:12:51.954Z,5.88
2019-02-10T18:13:51.989Z,5.83
2019-02-10T18:14:51.995Z,5.78
2019-02-10T18:15:51.937Z,5.75
2019-02-10T18:16:51.910Z,5.75
2019-02-10T18:17:51.981Z,5.58
2019-02-10T18:18:51.961Z,5.69
2019-02-10T18:19:51.974Z,5.58
2019-02-10T18:20:52.005Z,5.52
2019-02-10T18:21:51.914Z,5.49
2019-02-10T18:22:54.507Z,5.44
2019-02-10T18:23:51.828Z,5.42
2019-02-10T18:24:52.432Z,5.32
2019-02-10T18:25:51.897Z,5.33
2019-02-10T18:26:51.856Z,5.19
2019-02-10T18:27:51.866Z,5.23
2019-02-10T18:28:51.936Z,5.12
2019-02-10T18:29:51.830Z,5.19
2019-02-10T18:30:51.801Z,5.19
2019-02-10T18:31:51.726Z,5.06
2019-02-10T18:32:51.717Z,5.09
2019-02-10T18:33:51.706Z,5.12
2019-02-10T18:34:51.830Z,5.01
2019-02-10T18:35:52.609Z,4.94
2019-02-10T18:36:51.690Z,4.97
2019-02-10T18:37:51.687Z,4.86
2019-02-10T18:38:51.660Z,4.90
2019-02-10T18:39:51.652Z,4.84
2019-02-10T18:40:51.648Z,4.86
2019-02-10T18:41:51.651Z,4.80
2019-02-10T18:42:51.733Z,4.68
2019-02-10T18:43:51.656Z,4.65
2019-02-10T18:44:51.592Z,4.67
2019-02-10T18:45:51.586Z,4.62
2019-02-10T18:46:51.694Z,4.56
2019-02-10T18:47:51.599Z,4.53
2019-02-10T18:48:51.598Z,4.50
2019-02-10T18:49:52.015Z,4.44
2019-02-10T18:50:51.551Z,4.46
2019-02-10T18:51:51.545Z,4.36
2019-02-10T18:52:51.551Z,4.35
2019-02-10T18:53:51.571Z,4.28
2019-02-10T18:54:52.469Z,4.26
2019-02-10T18:55:51.560Z,4.28
2019-02-10T18:56:51.459Z,4.26
2019-02-10T18:57:51.554Z,4.20
2019-02-10T18:58:54.327Z,4.21
2019-02-10T18:59:51.433Z,4.20
2019-02-10T19:00:51.428Z,4.20
2019-02-10T19:01:51.400Z,4.14
2019-02-10T19:02:51.394Z,4.16
2019-02-10T19:03:51.435Z,4.18
2019-02-10T19:04:51.404Z,4.17
2019-02-10T19:05:51.403Z,4.10
2019-02-10T19:06:51.351Z,4.06
2019-02-10T19:07:51.340Z,4.07
2019-02-10T19:08:51.378Z,4.04
2019-02-10T19:09:51.335Z,4.06
2019-02-10T19:10:51.384Z,4.07
2019-02-10T19:11:51.304Z,4.06
2019-02-10T19:12:51.323Z,4.02
2019-02-10T19:13:51.273Z,3.98
2019-02-10T19:14:51.271Z,3.89
2019-02-10T19:15:51.290Z,3.98
2019-02-10T19:16:51.238Z,3.96
2019-02-10T19:17:51.266Z,3.96
2019-02-10T19:18:51.238Z,3.90
2019-02-10T19:19:51.797Z,4.04
2019-02-10T19:20:51.265Z,3.89
2019-02-10T19:21:51.195Z,3.88
2019-02-10T19:22:51.189Z,3.75
2019-02-10T19:23:52.364Z,3.70
2019-02-10T19:24:51.166Z,3.60
2019-02-10T19:25:54.970Z,3.57
2019-02-10T19:37:50.554Z,3.30
2019-02-10T19:39:05.353Z,3.30
2019-02-10T19:39:49.890Z,3.25
2019-02-10T19:40:49.901Z,3.30
2019-02-10T19:41:55.532Z,3.23
2019-02-10T19:42:50.729Z,3.19
2019-02-10T19:43:49.826Z,3.16
2019-02-10T19:44:49.849Z,3.10
2019-02-10T19:45:51.866Z,3.07
2019-02-10T19:46:50.432Z,3.05
2019-02-10T19:47:49.772Z,3.05
2019-02-10T19:48:50.689Z,2.99
2019-02-10T19:49:49.682Z,2.99
2019-02-10T19:50:49.669Z,3.01
2019-02-10T19:51:49.642Z,2.97
2019-02-10T19:55:36.435Z,2.95
2019-02-10T19:58:07.065Z,3.01
2019-02-10T20:00:09.153Z,2.94
2019-02-10T20:01:09.052Z,2.92
2019-02-10T20:02:08.668Z,2.94
2019-02-10T20:03:08.859Z,2.94
2019-02-10T20:04:08.699Z,3.01
2019-02-10T20:36:59.523Z,2.99
2019-02-10T20:37:57.272Z,3.05
2019-02-10T20:38:57.185Z,3.02
2019-02-10T20:39:58.098Z,3.02
2019-02-10T20:40:57.163Z,3.05
2019-02-10T20:41:57.151Z,3.08
2019-02-10T20:42:57.244Z,3.07
2019-02-10T20:43:57.127Z,3.10
2019-02-10T20:44:57.120Z,3.01
2019-02-10T20:45:57.098Z,3.16
2019-02-10T20:46:57.181Z,3.12
2019-02-10T20:47:57.086Z,3.10
2019-02-10T20:48:57.155Z,3.10
2019-02-10T20:49:57.061Z,3.10
2019-02-10T20:50:57.073Z,3.15
2019-02-10T20:51:57.041Z,3.12
2019-02-10T20:52:57.079Z,3.05
2019-02-10T20:53:57.041Z,3.08
2019-02-10T20:54:57.077Z,3.12
2019-02-10T20:55:56.998Z,3.10
2019-02-10T20:56:57.012Z,3.10
2019-02-10T20:57:57.061Z,3.12
2019-02-10T20:58:56.988Z,3.17
2019-02-10T20:59:57.417Z,3.08
2019-02-10T21:00:56.982Z,3.12
2019-02-10T21:01:57.011Z,3.13
2019-02-10T21:02:56.987Z,3.12
2019-02-10T21:03:56.900Z,3.17
2019-02-10T21:04:57.068Z,3.08
2019-02-10T21:05:56.895Z,3.10
2019-02-10T21:06:56.893Z,3.08
2019-02-10T21:07:56.899Z,3.10
2019-02-10T21:08:56.954Z,3.05
2019-02-10T21:09:56.903Z,3.07
2019-02-10T21:10:56.976Z,3.01
2019-02-10T21:11:57.613Z,3.05
2019-02-10T21:12:57.077Z,3.04
2019-02-10T21:13:56.956Z,3.05
2019-02-10T21:14:56.847Z,3.07
2019-02-10T21:15:56.958Z,3.05
2019-02-10T21:16:57.565Z,3.04
2019-02-10T21:17:56.825Z,3.02
2019-02-10T21:18:56.761Z,3.08
2019-02-10T21:19:56.779Z,2.99
2019-02-10T21:20:56.755Z,3.04
2019-02-10T21:21:56.733Z,2.98
2019-02-10T21:22:56.736Z,2.98
2019-02-10T21:23:56.690Z,2.98
2019-02-10T21:24:56.678Z,2.98
2019-02-10T21:25:56.668Z,2.99
2019-02-10T21:26:56.710Z,3.01
2019-02-10T21:27:56.647Z,2.97
2019-02-10T21:28:59.607Z,2.90
2019-02-10T21:29:56.633Z,2.99
2019-02-10T21:30:56.630Z,3.01
2019-02-10T21:31:56.605Z,3.05
2019-02-10T21:32:56.584Z,2.95
2019-02-10T21:33:56.590Z,3.01
2019-02-10T21:34:56.650Z,3.01
2019-02-10T21:35:56.707Z,2.89
2019-02-10T21:36:56.599Z,2.90